createdAt,value
2019-02-15T00:00:11.537Z,1028.86
2019-02-15T00:02:04.435Z,1028.83
2019-02-15T00:03:04.436Z,1028.85
2019-02-15T00:04:57.334Z,1028.89
2019-02-15T00:05:57.335Z,1028.89
2019-02-15T00:07:50.224Z,1028.91
2019-02-15T00:08:50.232Z,1028.92
2019-02-15T00:10:43.137Z,1028.95
2019-02-15T00:11:43.137Z,1028.93
2019-02-15T00:13:36.028Z,1028.96
2019-02-15T00:14:36.034Z,1028.98
2019-02-15T00:16:28.933Z,1028.93
2019-02-15T00:17:28.935Z,1028.90
2019-02-15T00:19:22.330Z,1028.90
2019-02-15T00:20:22.533Z,1028.83
2019-02-15T00:22:15.235Z,1028.89
2019-02-15T00:23:15.236Z,1028.89
2019-02-15T00:25:08.140Z,1028.86
2019-02-15T00:26:08.136Z,1028.87
2019-02-15T00:28:01.028Z,1028.85
2019-02-15T00:29:01.036Z,1028.87
2019-02-15T00:30:53.951Z,1028.87
2019-02-15T00:31:53.937Z,1028.87
2019-02-15T00:33:46.830Z,1028.84
2019-02-15T00:34:46.837Z,1028.86
2019-02-15T00:36:39.735Z,1028.80
2019-02-15T00:37:39.749Z,1028.80
2019-02-15T00:39:32.625Z,1028.79
2019-02-15T00:40:32.634Z,1028.78
2019-02-15T00:42:25.541Z,1028.80
2019-02-15T00:43:25.538Z,1028.84
2019-02-15T00:45:18.930Z,1028.82
2019-02-15T00:46:18.931Z,1028.81
2019-02-15T00:48:11.825Z,1028.84
2019-02-15T00:49:11.827Z,1028.86
2019-02-15T00:51:06.215Z,1028.83
2019-02-15T00:52:06.219Z,1028.82
2019-02-15T00:53:59.113Z,1028.84
2019-02-15T00:54:59.119Z,1028.82
2019-02-15T00:56:52.019Z,1028.80
2019-02-15T00:57:52.021Z,1028.84
2019-02-15T00:59:44.905Z,1028.83
2019-02-15T01:00:44.911Z,1028.82
2019-02-15T01:02:37.808Z,1028.82
2019-02-15T01:03:37.809Z,1028.82
2019-02-15T01:05:30.717Z,1028.84
2019-02-15T01:06:30.713Z,1028.80
2019-02-15T01:08:23.603Z,1028.87
2019-02-15T01:09:23.609Z,1028.84
2019-02-15T01:11:16.513Z,1028.85
2019-02-15T01:12:16.515Z,1028.83
2019-02-15T01:14:09.481Z,1028.82
2019-02-15T01:15:09.413Z,1028.82
2019-02-15T01:17:02.318Z,1028.76
2019-02-15T01:18:02.320Z,1028.78
2019-02-15T01:19:55.217Z,1028.74
2019-02-15T01:20:55.221Z,1028.76
2019-02-15T01:22:48.118Z,1028.79
2019-02-15T01:23:48.117Z,1028.77
2019-02-15T01:25:42.004Z,1028.74
2019-02-15T01:26:42.010Z,1028.78
2019-02-15T01:28:34.910Z,1028.75
2019-02-15T01:29:34.910Z,1028.73
2019-02-15T01:31:27.811Z,1028.72
2019-02-15T01:32:27.810Z,1028.73
2019-02-15T01:34:20.710Z,1028.74
2019-02-15T01:35:20.716Z,1028.78
2019-02-15T01:37:13.617Z,1028.77
2019-02-15T01:38:13.623Z,1028.77
2019-02-15T01:40:06.520Z,1028.74
2019-02-15T01:41:06.518Z,1028.71
2019-02-15T01:42:59.973Z,1028.67
2019-02-15T01:43:59.911Z,1028.69
2019-02-15T01:45:52.803Z,1028.68
2019-02-15T01:46:52.817Z,1028.71
2019-02-15T01:48:45.708Z,1028.70
2019-02-15T01:49:45.710Z,1028.67
2019-02-15T01:51:38.607Z,1028.67
2019-02-15T01:52:38.609Z,1028.64
2019-02-15T01:54:31.496Z,1028.61
2019-02-15T01:55:31.503Z,1028.62
2019-02-15T01:57:24.399Z,1028.54
2019-02-15T01:58:24.402Z,1028.52
2019-02-15T02:00:17.287Z,1028.55
2019-02-15T02:01:17.295Z,1028.54
2019-02-15T02:03:10.193Z,1028.50
2019-02-15T02:04:10.193Z,1028.48
2019-02-15T02:06:03.086Z,1028.46
2019-02-15T02:07:03.097Z,1028.47
2019-02-15T02:08:55.989Z,1028.46
2019-02-15T02:09:56.000Z,1028.48
2019-02-15T02:11:48.902Z,1028.48
2019-02-15T02:12:48.888Z,1028.49
2019-02-15T02:14:41.779Z,1028.46
2019-02-15T02:15:41.791Z,1028.44
2019-02-15T02:17:35.180Z,1028.43
2019-02-15T02:18:35.179Z,1028.42
2019-02-15T02:20:28.111Z,1028.39
2019-02-15T02:21:28.083Z,1028.36
2019-02-15T02:23:20.982Z,1028.38
2019-02-15T02:24:20.980Z,1028.36
2019-02-15T02:26:13.874Z,1028.32
2019-02-15T02:27:13.878Z,1028.33
2019-02-15T02:29:06.776Z,1028.27
2019-02-15T02:30:06.774Z,1028.28
2019-02-15T02:31:59.678Z,1028.23
2019-02-15T02:32:59.676Z,1028.25
2019-02-15T02:34:52.575Z,1028.23
2019-02-15T02:35:52.572Z,1028.19
2019-02-15T02:37:45.471Z,1028.17
2019-02-15T02:38:45.473Z,1028.17
2019-02-15T02:40:38.376Z,1028.16
2019-02-15T02:41:38.389Z,1028.19
2019-02-15T02:43:31.277Z,1028.15
2019-02-15T02:44:31.278Z,1028.18
2019-02-15T02:46:24.167Z,1028.16
2019-02-15T02:47:24.174Z,1028.22
2019-02-15T02:49:17.073Z,1028.16
2019-02-15T02:50:17.072Z,1028.20
2019-02-15T02:52:09.978Z,1028.19
2019-02-15T02:53:09.973Z,1028.20
2019-02-15T02:55:02.867Z,1028.15
2019-02-15T02:56:02.876Z,1028.16
2019-02-15T02:57:55.785Z,1028.12
2019-02-15T02:58:55.785Z,1028.12
2019-02-15T03:00:48.683Z,1028.10
2019-02-15T03:01:48.686Z,1028.11
2019-02-15T03:03:41.590Z,1028.11
2019-02-15T03:04:41.587Z,1028.11
2019-02-15T03:06:34.476Z,1028.13
2019-02-15T03:07:34.485Z,1028.09
2019-02-15T03:09:27.889Z,1028.09
2019-02-15T03:10:27.885Z,1028.13
2019-02-15T03:12:20.787Z,1028.10
2019-02-15T03:13:20.779Z,1028.11
2019-02-15T03:15:13.685Z,1028.08
2019-02-15T03:16:13.695Z,1028.07
2019-02-15T03:18:06.603Z,1028.05
2019-02-15T03:19:06.591Z,1028.05
2019-02-15T03:20:59.479Z,1028.04
2019-02-15T03:21:59.509Z,1028.01
2019-02-15T03:23:52.891Z,1028.00
2019-02-15T03:24:52.882Z,1028.00
2019-02-15T03:26:45.824Z,1028.02
2019-02-15T03:27:45.779Z,1028.00
2019-02-15T03:29:38.686Z,1027.99
2019-02-15T03:30:38.680Z,1027.97
2019-02-15T03:32:31.579Z,1027.94
2019-02-15T03:33:31.581Z,1027.99
2019-02-15T03:35:24.471Z,1027.98
2019-02-15T03:36:24.474Z,1027.95
2019-02-15T03:38:17.395Z,1028.00
2019-02-15T03:39:17.381Z,1027.95
2019-02-15T03:41:10.264Z,1027.91
2019-02-15T03:42:10.272Z,1027.95
2019-02-15T03:44:03.167Z,1027.88
2019-02-15T03:45:03.186Z,1027.97
2019-02-15T03:46:56.068Z,1027.91
2019-02-15T03:47:56.085Z,1027.90
2019-02-15T03:49:48.974Z,1027.90
2019-02-15T03:50:48.978Z,1027.89
2019-02-15T03:52:41.885Z,1027.88
2019-02-15T03:53:41.878Z,1027.86
2019-02-15T03:55:34.777Z,1027.87
2019-02-15T03:56:34.775Z,1027.88
2019-02-15T03:58:27.676Z,1027.90
2019-02-15T03:59:27.675Z,1027.87
2019-02-15T04:01:21.063Z,1027.86
2019-02-15T04:02:21.092Z,1027.90
2019-02-15T04:04:13.964Z,1027.89
2019-02-15T04:05:13.961Z,1027.87
2019-02-15T04:07:06.860Z,1027.87
2019-02-15T04:08:07.414Z,1027.90
2019-02-15T04:09:59.755Z,1027.90
2019-02-15T04:10:59.761Z,1027.87
2019-02-15T04:12:52.648Z,1027.87
2019-02-15T04:13:52.661Z,1027.85
2019-02-15T04:15:45.550Z,1027.88
2019-02-15T04:16:45.548Z,1027.91
2019-02-15T04:18:38.443Z,1027.88
2019-02-15T04:19:38.445Z,1027.90
2019-02-15T04:21:31.401Z,1027.89
2019-02-15T04:22:31.346Z,1027.89
2019-02-15T04:24:25.288Z,1027.93
2019-02-15T04:25:25.232Z,1027.89
2019-02-15T04:27:18.129Z,1027.86
2019-02-15T04:28:18.129Z,1027.87
2019-02-15T04:30:11.026Z,1027.83
2019-02-15T04:31:11.029Z,1027.87
2019-02-15T04:33:04.406Z,1027.83
2019-02-15T04:34:04.423Z,1027.81
2019-02-15T04:35:57.313Z,1027.81
2019-02-15T04:36:57.322Z,1027.76
2019-02-15T04:38:50.206Z,1027.87
2019-02-15T04:39:50.208Z,1027.88
2019-02-15T04:41:43.094Z,1027.88
2019-02-15T04:42:43.120Z,1027.88
2019-02-15T04:44:42.520Z,1027.88
2019-02-15T04:45:36.494Z,1027.89
2019-02-15T04:47:29.383Z,1027.88
2019-02-15T04:48:29.412Z,1027.88
2019-02-15T04:50:22.286Z,1027.97
2019-02-15T04:51:22.287Z,1027.94
2019-02-15T04:53:15.187Z,1027.94
2019-02-15T04:54:15.192Z,1027.95
2019-02-15T04:56:08.084Z,1027.94
2019-02-15T04:57:08.085Z,1027.94
2019-02-15T04:59:00.979Z,1027.92
2019-02-15T05:00:00.978Z,1027.93
2019-02-15T05:01:53.866Z,1027.90
2019-02-15T05:02:53.876Z,1027.83
2019-02-15T05:04:46.775Z,1027.85
2019-02-15T05:05:46.771Z,1027.86
2019-02-15T05:07:39.662Z,1027.81
2019-02-15T05:08:39.668Z,1027.83
2019-02-15T05:10:32.570Z,1027.81
2019-02-15T05:11:32.567Z,1027.85
2019-02-15T05:13:25.949Z,1027.84
2019-02-15T05:14:25.960Z,1027.85
2019-02-15T05:16:18.859Z,1027.84
2019-02-15T05:17:18.854Z,1027.80
2019-02-15T05:19:11.760Z,1027.83
2019-02-15T05:20:11.800Z,1027.82
2019-02-15T05:22:04.638Z,1027.81
2019-02-15T05:23:04.648Z,1027.80
2019-02-15T05:24:57.550Z,1027.81
2019-02-15T05:25:57.546Z,1027.81
2019-02-15T05:27:50.435Z,1027.82
2019-02-15T05:28:50.446Z,1027.79
2019-02-15T05:30:43.334Z,1027.81
2019-02-15T05:31:43.333Z,1027.81
2019-02-15T05:33:36.231Z,1027.77
2019-02-15T05:34:36.233Z,1027.79
2019-02-15T05:36:29.132Z,1027.79
2019-02-15T05:37:29.129Z,1027.81
2019-02-15T05:39:22.027Z,1027.83
2019-02-15T05:40:22.025Z,1027.81
2019-02-15T05:42:15.414Z,1027.86
2019-02-15T05:43:15.421Z,1027.80
2019-02-15T05:45:09.822Z,1027.80
2019-02-15T05:46:09.835Z,1027.81
2019-02-15T05:48:02.705Z,1027.76
2019-02-15T05:49:02.709Z,1027.80
2019-02-15T05:50:55.610Z,1027.79
2019-02-15T05:51:55.609Z,1027.81
2019-02-15T05:53:48.517Z,1027.82
2019-02-15T05:54:48.509Z,1027.84
2019-02-15T05:56:41.885Z,1027.82
2019-02-15T05:57:41.895Z,1027.84
2019-02-15T05:59:34.793Z,1027.87
2019-02-15T06:00:37.038Z,1027.84
2019-02-15T06:02:28.173Z,1027.82
2019-02-15T06:03:28.183Z,1027.82
2019-02-15T06:05:21.093Z,1027.84
2019-02-15T06:06:21.098Z,1027.82
2019-02-15T06:08:13.969Z,1027.81
2019-02-15T06:09:13.976Z,1027.82
2019-02-15T06:11:08.252Z,1027.82
2019-02-15T06:12:06.875Z,1027.84
2019-02-15T06:14:00.842Z,1027.81
2019-02-15T06:15:00.417Z,1027.78
2019-02-15T06:16:54.649Z,1027.79
2019-02-15T06:17:54.655Z,1027.80
2019-02-15T06:19:49.050Z,1027.78
2019-02-15T06:20:49.053Z,1027.79
2019-02-15T06:22:41.932Z,1027.77
2019-02-15T06:23:41.938Z,1027.83
2019-02-15T06:25:34.838Z,1027.82
2019-02-15T06:26:34.835Z,1027.82
2019-02-15T06:28:27.721Z,1027.83
2019-02-15T06:29:27.730Z,1027.82
2019-02-15T06:31:20.630Z,1027.88
2019-02-15T06:32:20.629Z,1027.85
2019-02-15T06:34:13.520Z,1027.87
2019-02-15T06:35:13.525Z,1027.88
2019-02-15T06:37:07.422Z,1027.88
2019-02-15T06:38:07.424Z,1027.90
2019-02-15T06:40:00.823Z,1027.86
2019-02-15T06:41:00.325Z,1027.92
2019-02-15T06:42:53.225Z,1027.90
2019-02-15T06:43:53.217Z,1027.90
2019-02-15T06:45:46.106Z,1027.89
2019-02-15T06:46:46.105Z,1027.91
2019-02-15T06:48:39.558Z,1027.87
2019-02-15T06:49:39.002Z,1027.90
2019-02-15T06:51:32.894Z,1027.89
2019-02-15T06:52:32.890Z,1027.87
2019-02-15T06:54:25.781Z,1027.81
2019-02-15T06:55:25.786Z,1027.82
2019-02-15T06:57:18.684Z,1027.83
2019-02-15T06:58:18.703Z,1027.82
2019-02-15T07:00:12.275Z,1027.85
2019-02-15T07:01:12.276Z,1027.87
2019-02-15T07:03:05.171Z,1027.84
2019-02-15T07:04:05.165Z,1027.87
2019-02-15T07:05:58.068Z,1027.89
2019-02-15T07:06:58.066Z,1027.89
2019-02-15T07:08:50.958Z,1027.93
2019-02-15T07:09:50.963Z,1027.93
2019-02-15T07:11:43.860Z,1027.94
2019-02-15T07:12:43.858Z,1027.93
2019-02-15T07:14:36.784Z,1027.96
2019-02-15T07:15:36.783Z,1027.97
2019-02-15T07:17:29.681Z,1027.95
2019-02-15T07:18:29.676Z,1027.95
2019-02-15T07:20:22.572Z,1027.90
2019-02-15T07:21:22.577Z,1027.90
2019-02-15T07:23:15.490Z,1027.93
2019-02-15T07:24:15.489Z,1027.91
2019-02-15T07:26:08.387Z,1027.92
2019-02-15T07:27:08.387Z,1027.90
2019-02-15T07:29:01.274Z,1027.90
2019-02-15T07:30:01.286Z,1027.91
2019-02-15T07:31:54.178Z,1027.94
2019-02-15T07:32:54.180Z,1027.99
2019-02-15T07:34:47.067Z,1027.98
2019-02-15T07:35:47.069Z,1027.92
2019-02-15T07:37:39.969Z,1027.97
2019-02-15T07:38:39.972Z,1027.99
2019-02-15T07:40:32.880Z,1027.97
2019-02-15T07:41:32.883Z,1028.00
2019-02-15T07:43:25.775Z,1027.94
2019-02-15T07:44:25.781Z,1027.95
2019-02-15T07:46:18.679Z,1027.97
2019-02-15T07:47:18.689Z,1027.97
2019-02-15T07:49:11.572Z,1027.93
2019-02-15T07:50:11.583Z,1027.93
2019-02-15T07:52:04.476Z,1027.95
2019-02-15T07:53:04.475Z,1027.97
2019-02-15T07:54:57.366Z,1027.93
2019-02-15T07:55:57.385Z,1027.94
2019-02-15T07:57:50.891Z,1027.89
2019-02-15T07:58:50.868Z,1027.88
2019-02-15T08:00:43.782Z,1027.84
2019-02-15T08:01:43.770Z,1027.84
2019-02-15T08:03:36.666Z,1027.85
2019-02-15T08:04:36.663Z,1027.85
2019-02-15T08:06:29.615Z,1027.83
2019-02-15T08:07:29.562Z,1027.85
2019-02-15T08:09:22.986Z,1027.79
2019-02-15T08:10:22.963Z,1027.84
2019-02-15T08:12:15.871Z,1027.79
2019-02-15T08:13:15.872Z,1027.78
2019-02-15T08:15:09.298Z,1027.76
2019-02-15T08:16:09.275Z,1027.75
2019-02-15T08:18:02.169Z,1027.76
2019-02-15T08:19:02.788Z,1027.77
2019-02-15T08:20:55.083Z,1027.74
2019-02-15T08:21:55.069Z,1027.76
2019-02-15T08:23:48.074Z,1027.77
2019-02-15T08:24:48.084Z,1027.77
2019-02-15T08:26:40.919Z,1027.78
2019-02-15T08:27:40.915Z,1027.77
2019-02-15T08:29:33.803Z,1027.77
2019-02-15T08:30:33.810Z,1027.77
2019-02-15T08:32:26.711Z,1027.77
2019-02-15T08:33:26.712Z,1027.75
2019-02-15T08:35:19.607Z,1027.73
2019-02-15T08:36:19.618Z,1027.71
2019-02-15T08:38:12.534Z,1027.71
2019-02-15T08:39:12.631Z,1027.70
2019-02-15T08:41:05.418Z,1027.71
2019-02-15T08:42:05.419Z,1027.70
2019-02-15T08:43:58.312Z,1027.71
2019-02-15T08:44:58.318Z,1027.65
2019-02-15T08:46:51.827Z,1027.64
2019-02-15T08:47:51.817Z,1027.61
2019-02-15T08:49:44.711Z,1027.64
2019-02-15T08:50:44.718Z,1027.66
2019-02-15T08:52:37.626Z,1027.67
2019-02-15T08:53:37.626Z,1027.62
2019-02-15T08:55:30.523Z,1027.66
2019-02-15T08:56:30.529Z,1027.67
2019-02-15T08:58:23.432Z,1027.70
2019-02-15T08:59:23.500Z,1027.73
2019-02-15T09:01:16.335Z,1027.72
2019-02-15T09:02:16.343Z,1027.73
2019-02-15T09:04:09.279Z,1027.75
2019-02-15T09:05:09.243Z,1027.75
2019-02-15T09:07:02.144Z,1027.73
2019-02-15T09:08:02.151Z,1027.73
2019-02-15T09:09:55.046Z,1027.71
2019-02-15T09:10:55.056Z,1027.68
2019-02-15T09:12:48.042Z,1027.70
2019-02-15T09:13:47.980Z,1027.73
2019-02-15T09:15:40.929Z,1027.69
2019-02-15T09:16:40.935Z,1027.71
2019-02-15T09:18:33.837Z,1027.74
2019-02-15T09:19:33.836Z,1027.72
2019-02-15T09:21:26.746Z,1027.70
2019-02-15T09:22:26.742Z,1027.69
2019-02-15T09:24:19.639Z,1027.69
2019-02-15T09:25:19.648Z,1027.69
2019-02-15T09:27:12.549Z,1027.66
2019-02-15T09:28:12.560Z,1027.70
2019-02-15T09:30:05.489Z,1027.66
2019-02-15T09:31:05.467Z,1027.66
2019-02-15T09:32:58.362Z,1027.65
2019-02-15T09:33:58.369Z,1027.63
2019-02-15T09:35:51.284Z,1027.65
2019-02-15T09:36:51.278Z,1027.59
2019-02-15T09:38:44.186Z,1027.60
2019-02-15T09:39:44.188Z,1027.52
2019-02-15T09:41:37.081Z,1027.57
2019-02-15T09:42:37.092Z,1027.53
2019-02-15T09:44:29.997Z,1027.53
2019-02-15T09:45:30.001Z,1027.52
2019-02-15T09:47:22.905Z,1027.51
2019-02-15T09:48:22.912Z,1027.53
2019-02-15T09:50:15.807Z,1027.51
2019-02-15T09:51:15.821Z,1027.51
2019-02-15T09:53:08.756Z,1027.49
2019-02-15T09:54:08.738Z,1027.54
2019-02-15T09:56:01.670Z,1027.54
2019-02-15T09:57:01.650Z,1027.52
2019-02-15T09:58:54.552Z,1027.54
2019-02-15T09:59:54.558Z,1027.54
2019-02-15T10:01:47.459Z,1027.51
2019-02-15T10:02:47.466Z,1027.52
2019-02-15T10:04:40.380Z,1027.50
2019-02-15T10:05:40.386Z,1027.49
2019-02-15T10:07:33.304Z,1027.41
2019-02-15T10:08:33.304Z,1027.44
2019-02-15T10:10:27.182Z,1027.43
2019-02-15T10:11:27.193Z,1027.47
2019-02-15T10:13:20.101Z,1027.45
2019-02-15T10:14:20.108Z,1027.47
2019-02-15T10:16:13.074Z,1027.44
2019-02-15T10:17:13.018Z,1027.45
2019-02-15T10:19:05.936Z,1027.44
2019-02-15T10:20:05.930Z,1027.44
2019-02-15T10:21:58.828Z,1027.44
2019-02-15T10:22:58.841Z,1027.41
2019-02-15T10:24:51.749Z,1027.42
2019-02-15T10:25:51.773Z,1027.41
2019-02-15T10:27:44.659Z,1027.45
2019-02-15T10:28:44.664Z,1027.46
2019-02-15T10:30:37.636Z,1027.45
2019-02-15T10:31:37.597Z,1027.45
2019-02-15T10:33:30.514Z,1027.43
2019-02-15T10:34:30.502Z,1027.43
2019-02-15T10:36:24.893Z,1027.44
2019-02-15T10:37:24.905Z,1027.40
2019-02-15T10:39:17.811Z,1027.40
2019-02-15T10:40:17.814Z,1027.38
2019-02-15T10:42:10.767Z,1027.37
2019-02-15T10:43:10.759Z,1027.36
2019-02-15T10:45:04.176Z,1027.32
2019-02-15T10:46:04.180Z,1027.36
2019-02-15T10:47:58.092Z,1027.27
2019-02-15T10:48:58.119Z,1027.26
2019-02-15T10:50:50.994Z,1027.24
2019-02-15T10:51:51.025Z,1027.23
2019-02-15T10:53:43.913Z,1027.20
2019-02-15T10:54:43.915Z,1027.18
2019-02-15T10:56:36.814Z,1027.13
2019-02-15T10:57:36.826Z,1027.16
2019-02-15T10:59:29.733Z,1027.12
2019-02-15T11:00:29.739Z,1027.12
2019-02-15T11:02:22.638Z,1027.07
2019-02-15T11:03:22.653Z,1027.08
2019-02-15T11:05:15.559Z,1027.06
2019-02-15T11:06:15.570Z,1027.04
2019-02-15T11:08:08.479Z,1026.99
2019-02-15T11:09:08.483Z,1027.02
2019-02-15T11:11:01.380Z,1027.02
2019-02-15T11:12:01.393Z,1027.00
2019-02-15T11:13:54.802Z,1027.02
2019-02-15T11:14:54.802Z,1026.99
2019-02-15T11:16:47.705Z,1026.99
2019-02-15T11:17:47.728Z,1026.95
2019-02-15T11:19:40.626Z,1026.97
2019-02-15T11:20:40.631Z,1026.95
2019-02-15T11:22:33.529Z,1026.95
2019-02-15T11:23:33.548Z,1026.91
2019-02-15T11:25:26.463Z,1026.88
2019-02-15T11:26:26.463Z,1026.89
2019-02-15T11:28:19.377Z,1026.85
2019-02-15T11:29:19.384Z,1026.83
2019-02-15T11:31:12.285Z,1026.81
2019-02-15T11:32:12.296Z,1026.80
2019-02-15T11:34:05.203Z,1026.82
2019-02-15T11:35:05.212Z,1026.78
2019-02-15T11:36:58.113Z,1026.73
2019-02-15T11:37:58.125Z,1026.75
2019-02-15T11:39:51.037Z,1026.71
2019-02-15T11:40:51.039Z,1026.73
2019-02-15T11:42:43.943Z,1026.69
2019-02-15T11:43:43.957Z,1026.66
2019-02-15T11:45:36.864Z,1026.60
2019-02-15T11:46:36.872Z,1026.61
2019-02-15T11:48:29.781Z,1026.58
2019-02-15T11:49:29.790Z,1026.57
2019-02-15T11:51:22.693Z,1026.57
2019-02-15T11:52:22.704Z,1026.56
2019-02-15T11:54:23.359Z,1026.54
2019-02-15T11:55:15.624Z,1026.51
2019-02-15T11:57:08.530Z,1026.49
2019-02-15T11:58:08.552Z,1026.49
2019-02-15T12:00:01.501Z,1026.48
2019-02-15T12:01:01.456Z,1026.47
2019-02-15T12:02:54.371Z,1026.43
2019-02-15T12:03:54.382Z,1026.42
2019-02-15T12:05:47.291Z,1026.37
2019-02-15T12:06:47.296Z,1026.38
2019-02-15T12:08:40.203Z,1026.34
2019-02-15T12:09:40.217Z,1026.36
2019-02-15T12:11:33.123Z,1026.33
2019-02-15T12:12:33.137Z,1026.37
2019-02-15T12:14:26.066Z,1026.34
2019-02-15T12:15:26.058Z,1026.31
2019-02-15T12:17:18.966Z,1026.28
2019-02-15T12:18:18.977Z,1026.28
2019-02-15T12:20:11.896Z,1026.26
2019-02-15T12:21:11.905Z,1026.24
2019-02-15T12:23:04.805Z,1026.24
2019-02-15T12:24:04.823Z,1026.22
2019-02-15T12:25:57.739Z,1026.17
2019-02-15T12:26:57.737Z,1026.19
2019-02-15T12:28:50.663Z,1026.18
2019-02-15T12:29:50.669Z,1026.13
2019-02-15T12:31:43.565Z,1026.14
2019-02-15T12:32:43.582Z,1026.12
2019-02-15T12:34:36.491Z,1026.10
2019-02-15T12:35:36.499Z,1026.13
2019-02-15T12:37:29.410Z,1026.07
2019-02-15T12:38:29.429Z,1026.04
2019-02-15T12:40:22.338Z,1026.00
2019-02-15T12:41:22.353Z,1025.98
2019-02-15T12:43:15.251Z,1025.99
2019-02-15T12:44:15.265Z,1025.99
2019-02-15T12:46:08.182Z,1025.98
2019-02-15T12:47:14.826Z,1025.94
2019-02-15T12:49:01.099Z,1025.90
2019-02-15T12:50:01.113Z,1025.89
2019-02-15T12:51:54.013Z,1025.90
2019-02-15T12:52:54.028Z,1025.83
2019-02-15T12:54:46.943Z,1025.83
2019-02-15T12:55:47.081Z,1025.76
2019-02-15T12:57:39.854Z,1025.77
2019-02-15T12:58:39.869Z,1025.75
2019-02-15T13:00:33.287Z,1025.75
2019-02-15T13:01:32.787Z,1025.76
2019-02-15T13:03:25.780Z,1025.70
2019-02-15T13:04:25.716Z,1025.70
2019-02-15T13:06:18.656Z,1025.67
2019-02-15T13:07:18.636Z,1025.66
2019-02-15T13:09:11.547Z,1025.64
2019-02-15T13:10:11.554Z,1025.63
2019-02-15T13:12:04.465Z,1025.59
2019-02-15T13:13:04.476Z,1025.56
2019-02-15T13:14:57.405Z,1025.54
2019-02-15T13:15:57.406Z,1025.53
2019-02-15T13:17:50.307Z,1025.50
2019-02-15T13:18:50.325Z,1025.53
2019-02-15T13:20:43.248Z,1025.48
2019-02-15T13:21:43.247Z,1025.46
2019-02-15T13:23:36.154Z,1025.44
2019-02-15T13:24:36.167Z,1025.44
2019-02-15T13:26:29.234Z,1025.44
2019-02-15T13:27:29.095Z,1025.42
2019-02-15T13:29:22.002Z,1025.45
2019-02-15T13:30:22.009Z,1025.42
2019-02-15T13:32:14.916Z,1025.40
2019-02-15T13:33:14.934Z,1025.41
2019-02-15T13:35:07.846Z,1025.32
2019-02-15T13:36:07.855Z,1025.34
2019-02-15T13:38:00.808Z,1025.31
2019-02-15T13:39:00.810Z,1025.31
2019-02-15T13:40:54.718Z,1025.25
2019-02-15T13:41:54.728Z,1025.22
2019-02-15T13:43:47.635Z,1025.26
2019-02-15T13:44:47.652Z,1025.21
2019-02-15T13:46:40.570Z,1025.23
2019-02-15T13:47:40.582Z,1025.20
2019-02-15T13:49:33.555Z,1025.22
2019-02-15T13:50:33.524Z,1025.22
2019-02-15T13:52:26.406Z,1025.19
2019-02-15T13:53:26.422Z,1025.20
2019-02-15T13:55:19.338Z,1025.17
2019-02-15T13:56:19.344Z,1025.14
2019-02-15T13:58:12.322Z,1025.14
2019-02-15T13:59:12.319Z,1025.10
2019-02-15T14:01:05.308Z,1025.08
2019-02-15T14:02:05.240Z,1025.07
2019-02-15T14:03:58.167Z,1025.01
2019-02-15T14:04:58.168Z,1025.01
2019-02-15T14:06:51.083Z,1025.01
2019-02-15T14:07:51.088Z,1024.97
2019-02-15T14:09:44.003Z,1024.96
2019-02-15T14:10:44.015Z,1024.95
2019-02-15T14:12:36.916Z,1024.89
2019-02-15T14:13:36.932Z,1024.91
2019-02-15T14:15:29.846Z,1024.88
2019-02-15T14:16:29.857Z,1024.85
2019-02-15T14:18:22.761Z,1024.87
2019-02-15T14:19:22.779Z,1024.78
2019-02-15T14:21:15.699Z,1024.78
2019-02-15T14:22:15.744Z,1024.80
2019-02-15T14:24:08.614Z,1024.73
2019-02-15T14:25:08.629Z,1024.76
2019-02-15T14:27:01.546Z,1024.72
2019-02-15T14:28:01.555Z,1024.66
2019-02-15T14:29:56.844Z,1024.70
2019-02-15T14:30:54.470Z,1024.69
2019-02-15T14:32:47.403Z,1024.65
2019-02-15T14:33:47.398Z,1024.63
2019-02-15T14:35:40.317Z,1024.56
2019-02-15T14:36:40.325Z,1024.54
2019-02-15T14:38:33.229Z,1024.51
2019-02-15T14:39:33.241Z,1024.49
2019-02-15T14:41:26.163Z,1024.45
2019-02-15T14:42:26.220Z,1024.45
2019-02-15T14:44:19.090Z,1024.40
2019-02-15T14:45:19.097Z,1024.41
2019-02-15T14:47:12.014Z,1024.40
2019-02-15T14:48:12.022Z,1024.40
2019-02-15T14:50:06.058Z,1024.37
2019-02-15T14:51:06.119Z,1024.36
2019-02-15T14:52:58.964Z,1024.31
2019-02-15T14:53:58.981Z,1024.32
2019-02-15T14:55:51.895Z,1024.32
2019-02-15T14:56:51.901Z,1024.28
2019-02-15T14:58:44.815Z,1024.27
2019-02-15T14:59:44.830Z,1024.25
2019-02-15T15:01:37.797Z,1024.23
2019-02-15T15:02:37.753Z,1024.23
2019-02-15T15:04:30.658Z,1024.17
2019-02-15T15:05:30.677Z,1024.17
2019-02-15T15:07:23.591Z,1024.15
2019-02-15T15:08:23.599Z,1024.13
2019-02-15T15:10:16.514Z,1024.10
2019-02-15T15:11:16.523Z,1024.09
2019-02-15T15:13:09.438Z,1024.07
2019-02-15T15:14:09.447Z,1024.07
2019-02-15T15:16:02.406Z,1024.07
2019-02-15T15:17:02.370Z,1024.05
2019-02-15T15:18:55.344Z,1024.05
2019-02-15T15:19:55.295Z,1024.06
2019-02-15T15:21:48.212Z,1024.01
2019-02-15T15:22:48.223Z,1024.02
2019-02-15T15:24:41.132Z,1023.99
2019-02-15T15:25:41.147Z,1023.96
2019-02-15T15:27:34.066Z,1023.94
2019-02-15T15:28:34.074Z,1023.91
2019-02-15T15:30:26.990Z,1023.92
2019-02-15T15:31:26.999Z,1023.93
2019-02-15T15:33:19.910Z,1023.93
2019-02-15T15:34:19.921Z,1023.91
2019-02-15T15:36:12.839Z,1023.92
2019-02-15T15:37:16.554Z,1023.91
2019-02-15T15:39:05.769Z,1023.86
2019-02-15T15:40:05.768Z,1023.86
2019-02-15T15:41:58.693Z,1023.82
2019-02-15T15:42:58.699Z,1023.82
2019-02-15T15:44:51.602Z,1023.77
2019-02-15T15:45:51.617Z,1023.78
2019-02-15T15:47:44.534Z,1023.77
2019-02-15T15:48:44.562Z,1023.77
2019-02-15T15:50:37.459Z,1023.74
2019-02-15T15:51:37.537Z,1023.76
2019-02-15T15:53:30.379Z,1023.76
2019-02-15T15:54:30.422Z,1023.76
2019-02-15T15:56:23.305Z,1023.74
2019-02-15T15:57:23.364Z,1023.72
2019-02-15T15:59:16.220Z,1023.71
2019-02-15T16:00:16.242Z,1023.68
2019-02-15T16:02:09.160Z,1023.65
2019-02-15T16:03:09.167Z,1023.68
2019-02-15T16:05:02.070Z,1023.64
2019-02-15T16:06:02.087Z,1023.65
2019-02-15T16:07:54.999Z,1023.63
2019-02-15T16:08:55.008Z,1023.60
2019-02-15T16:10:47.922Z,1023.63
2019-02-15T16:11:47.936Z,1023.62
2019-02-15T16:13:40.837Z,1023.58
2019-02-15T16:14:40.856Z,1023.62
2019-02-15T16:16:34.767Z,1023.59
2019-02-15T16:17:34.768Z,1023.57
2019-02-15T16:19:27.677Z,1023.61
2019-02-15T16:20:27.694Z,1023.59
2019-02-15T16:22:20.615Z,1023.60
2019-02-15T16:23:20.659Z,1023.56
2019-02-15T16:25:13.524Z,1023.53
2019-02-15T16:26:13.539Z,1023.54
2019-02-15T16:28:06.452Z,1023.51
2019-02-15T16:29:06.490Z,1023.55
2019-02-15T16:30:59.377Z,1023.54
2019-02-15T16:31:59.382Z,1023.55
2019-02-15T16:33:52.292Z,1023.54
2019-02-15T16:34:52.306Z,1023.58
2019-02-15T16:36:45.223Z,1023.52
2019-02-15T16:37:45.234Z,1023.52
2019-02-15T16:39:38.130Z,1023.52
2019-02-15T16:40:38.146Z,1023.49
2019-02-15T16:42:31.061Z,1023.51
2019-02-15T16:43:31.068Z,1023.49
2019-02-15T16:45:23.979Z,1023.48
2019-02-15T16:46:23.984Z,1023.49
2019-02-15T16:48:16.897Z,1023.51
2019-02-15T16:49:16.905Z,1023.52
2019-02-15T16:51:09.817Z,1023.49
2019-02-15T16:52:09.824Z,1023.48
2019-02-15T16:54:02.743Z,1023.47
2019-02-15T16:55:12.102Z,1023.45
2019-02-15T16:56:55.661Z,1023.52
2019-02-15T16:57:55.667Z,1023.47
2019-02-15T16:59:48.573Z,1023.45
2019-02-15T17:00:48.581Z,1023.48
2019-02-15T17:02:41.499Z,1023.53
2019-02-15T17:03:41.511Z,1023.52
2019-02-15T17:05:34.415Z,1023.47
2019-02-15T17:06:34.430Z,1023.51
2019-02-15T17:08:27.399Z,1023.51
2019-02-15T17:09:27.346Z,1023.54
2019-02-15T17:11:20.259Z,1023.54
2019-02-15T17:12:20.276Z,1023.55
2019-02-15T17:14:13.172Z,1023.51
2019-02-15T17:15:13.184Z,1023.50
2019-02-15T17:17:06.144Z,1023.49
2019-02-15T17:18:06.149Z,1023.46
2019-02-15T17:19:59.050Z,1023.47
2019-02-15T17:20:59.064Z,1023.48
2019-02-15T17:22:52.470Z,1023.42
2019-02-15T17:23:52.475Z,1023.45
2019-02-15T17:25:46.053Z,1023.44